sensor_id;sensor_type;location;lat;lon;timestamp;P1;durP1;ratioP1;P2;durP2;ratioP2
3549;SDS011;45572;48.804;8.330;2023-06-14T00:02:01;5.32;;;4.18;;
3549;SDS011;45572;48.804;8.330;2023-06-14T00:04:31;6.82;;;4.03;;
3549;SDS011;45572;48.804;8.330;2023-06-14T00:06:59;5.55;;;4.10;;
3549;SDS011;45572;48.804;8.330;2023-06-14T00:09:27;5.88;;;4.53;;
3549;SDS011;45572;48.804;8.330;2023-06-14T00:11:55;5.05;;;4.47;;
3549;SDS011;45572;48.804;8.330;2023-06-14T00:14:23;4.95;;;3.80;;
3549;SDS011;45572;48.804;8.330;2023-06-14T00:16:51;6.60;;;3.97;;
3549;SDS011;45572;48.804;8.330;2023-06-14T00:19:20;5.70;;;4.43;;
3549;SDS011;45572;48.804;8.330;2023-06-14T00:21:49;6.78;;;4.38;;
3549;SDS011;45572;48.804;8.330;2023-06-14T00:24:18;4.70;;;4.05;;
3549;SDS011;45572;48.804;8.330;2023-06-14T00:26:46;5.88;;;4.20;;
3549;SDS011;45572;48.804;8.330;2023-06-14T00:29:14;5.35;;;4.13;;
3549;SDS011;45572;48.804;8.330;2023-06-14T00:31:42;6.10;;;4.35;;
3549;SDS011;45572;48.804;8.330;2023-06-14T00:34:10;5.22;;;4.13;;
3549;SDS011;45572;48.804;8.330;2023-06-14T00:36:40;4.03;;;3.50;;
3549;SDS011;45572;48.804;8.330;2023-06-14T00:39:09;6.18;;;4.00;;
3549;SDS011;45572;48.804;8.330;2023-06-14T00:41:38;5.35;;;4.05;;
3549;SDS011;45572;48.804;8.330;2023-06-14T00:44:06;6.25;;;4.22;;
3549;SDS011;45572;48.804;8.330;2023-06-14T00:46:34;9.05;;;4.05;;
3549;SDS011;45572;48.804;8.330;2023-06-14T00:49:02;8.82;;;4.20;;
3549;SDS011;45572;48.804;8.330;2023-06-14T00:51:31;6.90;;;4.32;;
3549;SDS011;45572;48.804;8.330;2023-06-14T00:53:58;5.28;;;4.10;;
3549;SDS011;45572;48.804;8.330;2023-06-14T00:56:27;5.28;;;3.63;;
3549;SDS011;45572;48.804;8.330;2023-06-14T00:58:55;4.32;;;3.83;;
3549;SDS011;45572;48.804;8.330;2023-06-14T01:01:24;6.40;;;4.53;;
3549;SDS011;45572;48.804;8.330;2023-06-14T01:03:52;8.43;;;3.45;;
3549;SDS011;45572;48.804;8.330;2023-06-14T01:06:22;7.00;;;4.53;;
3549;SDS011;45572;48.804;8.330;2023-06-14T01:09:00;8.13;;;4.25;;
3549;SDS011;45572;48.804;8.330;2023-06-14T01:11:37;8.05;;;4.00;;
3549;SDS011;45572;48.804;8.330;2023-06-14T01:14:11;10.32;;;5.07;;
3549;SDS011;45572;48.804;8.330;2023-06-14T01:16:41;7.30;;;4.50;;
3549;SDS011;45572;48.804;8.330;2023-06-14T01:19:09;10.82;;;4.75;;
3549;SDS011;45572;48.804;8.330;2023-06-14T01:21:40;5.95;;;4.05;;
3549;SDS011;45572;48.804;8.330;2023-06-14T01:24:10;6.28;;;4.50;;
3549;SDS011;45572;48.804;8.330;2023-06-14T01:26:38;15.82;;;4.40;;
3549;SDS011;45572;48.804;8.330;2023-06-14T01:29:11;6.60;;;4.40;;
3549;SDS011;45572;48.804;8.330;2023-06-14T01:31:44;5.95;;;4.70;;
3549;SDS011;45572;48.804;8.330;2023-06-14T01:34:13;8.60;;;4.00;;
3549;SDS011;45572;48.804;8.330;2023-06-14T01:36:42;5.20;;;4.60;;
3549;SDS011;45572;48.804;8.330;2023-06-14T01:39:13;6.50;;;4.10;;
3549;SDS011;45572;48.804;8.330;2023-06-14T01:41:42;7.32;;;5.07;;
3549;SDS011;45572;48.804;8.330;2023-06-14T01:44:11;4.35;;;3.65;;
3549;SDS011;45572;48.804;8.330;2023-06-14T01:46:41;6.00;;;4.22;;
3549;SDS011;45572;48.804;8.330;2023-06-14T01:49:10;6.95;;;4.20;;
3549;SDS011;45572;48.804;8.330;2023-06-14T01:51:38;5.32;;;4.38;;
3549;SDS011;45572;48.804;8.330;2023-06-14T01:54:07;7.00;;;4.40;;
3549;SDS011;45572;48.804;8.330;2023-06-14T01:56:38;5.90;;;5.00;;
3549;SDS011;45572;48.804;8.330;2023-06-14T01:59:06;6.25;;;4.10;;
3549;SDS011;45572;48.804;8.330;2023-06-14T02:01:34;6.35;;;4.03;;
3549;SDS011;45572;48.804;8.330;2023-06-14T02:04:02;6.57;;;4.63;;
3549;SDS011;45572;48.804;8.330;2023-06-14T02:06:30;4.57;;;4.05;;
3549;SDS011;45572;48.804;8.330;2023-06-14T02:09:00;4.63;;;4.13;;
3549;SDS011;45572;48.804;8.330;2023-06-14T02:11:29;7.50;;;4.45;;
3549;SDS011;45572;48.804;8.330;2023-06-14T02:13:58;6.35;;;4.57;;
3549;SDS011;45572;48.804;8.330;2023-06-14T02:16:28;5.00;;;4.00;;
3549;SDS011;45572;48.804;8.330;2023-06-14T02:18:56;6.60;;;4.22;;
3549;SDS011;45572;48.804;8.330;2023-06-14T02:21:24;6.05;;;3.85;;
3549;SDS011;45572;48.804;8.330;2023-06-14T02:23:52;5.43;;;3.97;;
3549;SDS011;45572;48.804;8.330;2023-06-14T02:26:20;5.25;;;4.35;;
3549;SDS011;45572;48.804;8.330;2023-06-14T02:28:48;6.72;;;4.22;;
3549;SDS011;45572;48.804;8.330;2023-06-14T02:31:17;6.75;;;4.15;;
3549;SDS011;45572;48.804;8.330;2023-06-14T02:33:47;6.75;;;4.55;;
3549;SDS011;45572;48.804;8.330;2023-06-14T02:36:15;5.63;;;4.00;;
3549;SDS011;45572;48.804;8.330;2023-06-14T02:38:43;5.88;;;4.10;;
3549;SDS011;45572;48.804;8.330;2023-06-14T02:41:11;6.40;;;4.53;;
3549;SDS011;45572;48.804;8.330;2023-06-14T02:43:39;5.32;;;4.28;;
3549;SDS011;45572;48.804;8.330;2023-06-14T02:46:06;6.03;;;4.70;;
3549;SDS011;45572;48.804;8.330;2023-06-14T02:48:36;7.10;;;3.92;;
3549;SDS011;45572;48.804;8.330;2023-06-14T02:51:03;6.57;;;4.35;;
3549;SDS011;45572;48.804;8.330;2023-06-14T02:53:34;6.45;;;4.82;;
3549;SDS011;45572;48.804;8.330;2023-06-14T02:56:02;6.35;;;4.50;;
3549;SDS011;45572;48.804;8.330;2023-06-14T02:58:31;6.30;;;4.60;;
3549;SDS011;45572;48.804;8.330;2023-06-14T03:00:59;10.02;;;4.30;;
3549;SDS011;45572;48.804;8.330;2023-06-14T03:03:29;6.88;;;5.10;;
3549;SDS011;45572;48.804;8.330;2023-06-14T03:05:59;5.63;;;3.88;;
3549;SDS011;45572;48.804;8.330;2023-06-14T03:08:32;7.88;;;4.80;;
3549;SDS011;45572;48.804;8.330;2023-06-14T03:11:09;9.38;;;4.88;;
3549;SDS011;45572;48.804;8.330;2023-06-14T03:13:38;6.28;;;4.05;;
3549;SDS011;45572;48.804;8.330;2023-06-14T03:16:07;6.57;;;4.60;;
3549;SDS011;45572;48.804;8.330;2023-06-14T03:18:38;6.50;;;4.50;;
3549;SDS011;45572;48.804;8.330;2023-06-14T03:21:08;4.90;;;4.25;;
3549;SDS011;45572;48.804;8.330;2023-06-14T03:23:40;6.45;;;4.75;;
3549;SDS011;45572;48.804;8.330;2023-06-14T03:26:09;6.82;;;4.53;;
3549;SDS011;45572;48.804;8.330;2023-06-14T03:28:39;8.60;;;5.05;;
3549;SDS011;45572;48.804;8.330;2023-06-14T03:31:07;10.43;;;5.15;;
3549;SDS011;45572;48.804;8.330;2023-06-14T03:33:35;5.80;;;3.80;;
3549;SDS011;45572;48.804;8.330;2023-06-14T03:36:03;6.85;;;4.55;;
3549;SDS011;45572;48.804;8.330;2023-06-14T03:38:33;10.13;;;4.40;;
3549;SDS011;45572;48.804;8.330;2023-06-14T03:41:03;6.15;;;4.65;;
3549;SDS011;45572;48.804;8.330;2023-06-14T03:43:31;7.20;;;4.55;;
3549;SDS011;45572;48.804;8.330;2023-06-14T03:46:00;7.60;;;4.10;;
3549;SDS011;45572;48.804;8.330;2023-06-14T03:48:29;4.95;;;4.03;;
3549;SDS011;45572;48.804;8.330;2023-06-14T03:50:57;6.55;;;4.53;;
3549;SDS011;45572;48.804;8.330;2023-06-14T03:53:28;7.68;;;4.95;;
3549;SDS011;45572;48.804;8.330;2023-06-14T03:55:58;6.68;;;4.68;;
3549;SDS011;45572;48.804;8.330;2023-06-14T03:58:34;5.85;;;4.25;;
3549;SDS011;45572;48.804;8.330;2023-06-14T04:01:03;7.20;;;5.10;;
3549;SDS011;45572;48.804;8.330;2023-06-14T04:03:34;5.32;;;4.20;;
3549;SDS011;45572;48.804;8.330;2023-06-14T04:06:03;7.22;;;5.03;;
3549;SDS011;45572;48.804;8.330;2023-06-14T04:08:31;5.35;;;4.53;;
3549;SDS011;45572;48.804;8.330;2023-06-14T04:11:00;6.28;;;4.30;;
3549;SDS011;45572;48.804;8.330;2023-06-14T04:13:28;6.07;;;4.70;;
3549;SDS011;45572;48.804;8.330;2023-06-14T04:15:56;9.20;;;4.68;;
3549;SDS011;45572;48.804;8.330;2023-06-14T04:18:31;8.25;;;4.72;;
3549;SDS011;45572;48.804;8.330;2023-06-14T04:20:59;5.50;;;4.50;;
3549;SDS011;45572;48.804;8.330;2023-06-14T04:23:28;7.50;;;4.50;;
3549;SDS011;45572;48.804;8.330;2023-06-14T04:25:56;6.03;;;4.15;;
3549;SDS011;45572;48.804;8.330;2023-06-14T04:28:29;6.15;;;5.15;;
3549;SDS011;45572;48.804;8.330;2023-06-14T04:31:00;10.05;;;4.60;;
3549;SDS011;45572;48.804;8.330;2023-06-14T04:33:30;5.68;;;4.57;;
3549;SDS011;45572;48.804;8.330;2023-06-14T04:35:58;4.97;;;4.25;;
3549;SDS011;45572;48.804;8.330;2023-06-14T04:38:26;8.55;;;5.20;;
3549;SDS011;45572;48.804;8.330;2023-06-14T04:40:55;8.25;;;4.28;;
3549;SDS011;45572;48.804;8.330;2023-06-14T04:43:23;7.65;;;5.80;;
3549;SDS011;45572;48.804;8.330;2023-06-14T04:45:54;8.35;;;5.00;;
3549;SDS011;45572;48.804;8.330;2023-06-14T04:48:23;8.05;;;5.47;;
3549;SDS011;45572;48.804;8.330;2023-06-14T04:50:51;7.07;;;4.85;;
3549;SDS011;45572;48.804;8.330;2023-06-14T04:53:19;9.10;;;5.35;;
3549;SDS011;45572;48.804;8.330;2023-06-14T04:55:51;9.40;;;5.35;;
3549;SDS011;45572;48.804;8.330;2023-06-14T04:58:20;8.88;;;5.05;;
3549;SDS011;45572;48.804;8.330;2023-06-14T05:00:48;7.88;;;5.35;;
3549;SDS011;45572;48.804;8.330;2023-06-14T05:03:17;10.25;;;4.72;;
3549;SDS011;45572;48.804;8.330;2023-06-14T05:05:47;8.52;;;5.45;;
3549;SDS011;45572;48.804;8.330;2023-06-14T05:08:16;10.30;;;4.95;;
3549;SDS011;45572;48.804;8.330;2023-06-14T05:10:45;10.60;;;5.88;;
3549;SDS011;45572;48.804;8.330;2023-06-14T05:13:13;9.10;;;4.60;;
3549;SDS011;45572;48.804;8.330;2023-06-14T05:15:40;6.40;;;4.47;;
3549;SDS011;45572;48.804;8.330;2023-06-14T05:18:10;6.82;;;4.57;;
3549;SDS011;45572;48.804;8.330;2023-06-14T05:20:41;6.03;;;4.82;;
3549;SDS011;45572;48.804;8.330;2023-06-14T05:23:09;6.22;;;4.45;;
3549;SDS011;45572;48.804;8.330;2023-06-14T05:25:42;11.98;;;4.40;;
3549;SDS011;45572;48.804;8.330;2023-06-14T05:28:10;8.07;;;5.32;;
3549;SDS011;45572;48.804;8.330;2023-06-14T05:30:38;8.77;;;5.00;;
3549;SDS011;45572;48.804;8.330;2023-06-14T05:33:06;16.40;;;4.95;;
3549;SDS011;45572;48.804;8.330;2023-06-14T05:35:34;5.70;;;5.05;;
3549;SDS011;45572;48.804;8.330;2023-06-14T05:38:05;5.80;;;4.55;;
3549;SDS011;45572;48.804;8.330;2023-06-14T05:40:33;5.47;;;4.97;;
3549;SDS011;45572;48.804;8.330;2023-06-14T05:43:01;7.22;;;5.40;;
3549;SDS011;45572;48.804;8.330;2023-06-14T05:45:29;6.18;;;4.75;;
3549;SDS011;45572;48.804;8.330;2023-06-14T05:47:59;9.75;;;5.70;;
3549;SDS011;45572;48.804;8.330;2023-06-14T05:50:29;6.72;;;5.40;;
3549;SDS011;45572;48.804;8.330;2023-06-14T05:52:57;6.80;;;5.25;;
3549;SDS011;45572;48.804;8.330;2023-06-14T05:55:26;6.90;;;5.93;;
3549;SDS011;45572;48.804;8.330;2023-06-14T05:57:54;7.75;;;4.88;;
3549;SDS011;45572;48.804;8.330;2023-06-14T06:00:22;11.27;;;5.90;;
3549;SDS011;45572;48.804;8.330;2023-06-14T06:02:50;10.30;;;6.03;;
3549;SDS011;45572;48.804;8.330;2023-06-14T06:05:20;7.43;;;5.10;;
3549;SDS011;45572;48.804;8.330;2023-06-14T06:07:49;7.60;;;5.93;;
3549;SDS011;45572;48.804;8.330;2023-06-14T06:10:18;6.60;;;5.20;;
3549;SDS011;45572;48.804;8.330;2023-06-14T06:12:47;6.47;;;5.30;;
3549;SDS011;45572;48.804;8.330;2023-06-14T06:15:19;5.67;;;5.17;;
3549;SDS011;45572;48.804;8.330;2023-06-14T06:17:47;13.70;;;5.47;;
3549;SDS011;45572;48.804;8.330;2023-06-14T06:20:24;8.00;;;4.97;;
3549;SDS011;45572;48.804;8.330;2023-06-14T06:22:56;6.67;;;5.07;;
3549;SDS011;45572;48.804;8.330;2023-06-14T06:25:24;6.20;;;4.80;;
3549;SDS011;45572;48.804;8.330;2023-06-14T06:27:54;10.17;;;4.70;;
3549;SDS011;45572;48.804;8.330;2023-06-14T06:30:22;7.60;;;4.90;;
3549;SDS011;45572;48.804;8.330;2023-06-14T06:32:52;6.93;;;5.13;;
3549;SDS011;45572;48.804;8.330;2023-06-14T06:35:23;15.33;;;4.87;;
3549;SDS011;45572;48.804;8.330;2023-06-14T06:37:54;5.23;;;3.63;;
3549;SDS011;45572;48.804;8.330;2023-06-14T06:40:22;6.10;;;4.53;;
3549;SDS011;45572;48.804;8.330;2023-06-14T06:42:50;4.70;;;3.93;;
3549;SDS011;45572;48.804;8.330;2023-06-14T06:45:20;5.63;;;4.63;;
3549;SDS011;45572;48.804;8.330;2023-06-14T06:47:51;7.43;;;4.30;;
3549;SDS011;45572;48.804;8.330;2023-06-14T06:50:19;5.43;;;4.13;;
3549;SDS011;45572;48.804;8.330;2023-06-14T06:52:49;4.77;;;4.27;;
3549;SDS011;45572;48.804;8.330;2023-06-14T06:55:17;5.47;;;4.10;;
3549;SDS011;45572;48.804;8.330;2023-06-14T06:57:45;5.63;;;4.40;;
3549;SDS011;45572;48.804;8.330;2023-06-14T07:00:13;6.13;;;4.37;;
3549;SDS011;45572;48.804;8.330;2023-06-14T07:02:43;4.50;;;3.77;;
3549;SDS011;45572;48.804;8.330;2023-06-14T07:05:11;4.10;;;3.37;;
3549;SDS011;45572;48.804;8.330;2023-06-14T07:07:40;5.03;;;3.67;;
3549;SDS011;45572;48.804;8.330;2023-06-14T07:10:07;6.90;;;3.17;;
3549;SDS011;45572;48.804;8.330;2023-06-14T07:12:35;5.53;;;3.33;;
3549;SDS011;45572;48.804;8.330;2023-06-14T07:15:06;3.50;;;3.20;;
3549;SDS011;45572;48.804;8.330;2023-06-14T07:17:34;4.60;;;3.40;;
3549;SDS011;45572;48.804;8.330;2023-06-14T07:20:04;5.00;;;3.70;;
3549;SDS011;45572;48.804;8.330;2023-06-14T07:22:39;5.00;;;3.30;;
3549;SDS011;45572;48.804;8.330;2023-06-14T07:25:08;3.67;;;3.30;;
3549;SDS011;45572;48.804;8.330;2023-06-14T07:27:39;4.93;;;3.43;;
3549;SDS011;45572;48.804;8.330;2023-06-14T07:30:08;5.47;;;4.07;;
3549;SDS011;45572;48.804;8.330;2023-06-14T07:32:36;4.23;;;3.50;;
3549;SDS011;45572;48.804;8.330;2023-06-14T07:35:06;3.50;;;3.20;;
3549;SDS011;45572;48.804;8.330;2023-06-14T07:37:34;3.50;;;3.20;;
3549;SDS011;45572;48.804;8.330;2023-06-14T07:40:02;2.90;;;2.70;;
3549;SDS011;45572;48.804;8.330;2023-06-14T07:42:33;4.53;;;3.73;;
3549;SDS011;45572;48.804;8.330;2023-06-14T07:45:02;3.03;;;2.43;;
3549;SDS011;45572;48.804;8.330;2023-06-14T07:47:30;4.93;;;3.50;;
3549;SDS011;45572;48.804;8.330;2023-06-14T07:49:58;5.60;;;2.50;;
3549;SDS011;45572;48.804;8.330;2023-06-14T07:52:27;6.27;;;2.93;;
3549;SDS011;45572;48.804;8.330;2023-06-14T07:54:55;4.20;;;3.10;;
3549;SDS011;45572;48.804;8.330;2023-06-14T07:57:23;4.20;;;2.83;;
3549;SDS011;45572;48.804;8.330;2023-06-14T07:59:51;2.97;;;2.77;;
3549;SDS011;45572;48.804;8.330;2023-06-14T08:02:18;4.43;;;2.60;;
3549;SDS011;45572;48.804;8.330;2023-06-14T08:04:46;2.70;;;2.50;;
3549;SDS011;45572;48.804;8.330;2023-06-14T08:07:14;3.40;;;3.10;;
3549;SDS011;45572;48.804;8.330;2023-06-14T08:09:43;2.70;;;2.50;;
3549;SDS011;45572;48.804;8.330;2023-06-14T08:12:11;7.13;;;3.40;;
3549;SDS011;45572;48.804;8.330;2023-06-14T08:14:39;4.03;;;2.60;;
3549;SDS011;45572;48.804;8.330;2023-06-14T08:17:09;3.33;;;3.03;;
3549;SDS011;45572;48.804;8.330;2023-06-14T08:19:36;6.83;;;3.00;;
3549;SDS011;45572;48.804;8.330;2023-06-14T08:22:04;4.43;;;3.77;;
3549;SDS011;45572;48.804;8.330;2023-06-14T08:24:33;3.80;;;3.20;;
3549;SDS011;45572;48.804;8.330;2023-06-14T08:27:02;6.37;;;3.63;;
3549;SDS011;45572;48.804;8.330;2023-06-14T08:29:30;4.43;;;3.47;;
3549;SDS011;45572;48.804;8.330;2023-06-14T08:31:58;8.10;;;4.20;;
3549;SDS011;45572;48.804;8.330;2023-06-14T08:34:26;5.00;;;2.97;;
3549;SDS011;45572;48.804;8.330;2023-06-14T08:36:54;5.40;;;3.03;;
3549;SDS011;45572;48.804;8.330;2023-06-14T08:39:22;4.13;;;3.00;;
3549;SDS011;45572;48.804;8.330;2023-06-14T08:41:50;5.47;;;3.37;;
3549;SDS011;45572;48.804;8.330;2023-06-14T08:44:21;3.90;;;3.23;;
3549;SDS011;45572;48.804;8.330;2023-06-14T08:46:49;6.03;;;3.27;;
3549;SDS011;45572;48.804;8.330;2023-06-14T08:49:19;5.80;;;3.40;;
3549;SDS011;45572;48.804;8.330;2023-06-14T08:51:48;8.17;;;3.77;;
3549;SDS011;45572;48.804;8.330;2023-06-14T08:54:20;7.20;;;3.07;;
3549;SDS011;45572;48.804;8.330;2023-06-14T08:56:47;4.47;;;3.40;;
3549;SDS011;45572;48.804;8.330;2023-06-14T08:59:17;3.97;;;3.50;;
3549;SDS011;45572;48.804;8.330;2023-06-14T09:01:50;9.00;;;4.20;;
3549;SDS011;45572;48.804;8.330;2023-06-14T09:04:38;5.63;;;4.00;;
3549;SDS011;45572;48.804;8.330;2023-06-14T09:07:06;5.57;;;3.80;;
3549;SDS011;45572;48.804;8.330;2023-06-14T09:09:38;9.23;;;4.10;;
3549;SDS011;45572;48.804;8.330;2023-06-14T09:12:18;7.67;;;4.10;;
3549;SDS011;45572;48.804;8.330;2023-06-14T09:14:46;6.90;;;4.00;;
3549;SDS011;45572;48.804;8.330;2023-06-14T09:17:16;7.23;;;3.90;;
3549;SDS011;45572;48.804;8.330;2023-06-14T09:19:44;5.20;;;3.67;;
3549;SDS011;45572;48.804;8.330;2023-06-14T09:22:12;6.20;;;4.40;;
3549;SDS011;45572;48.804;8.330;2023-06-14T09:24:42;7.40;;;4.30;;
3549;SDS011;45572;48.804;8.330;2023-06-14T09:27:14;8.40;;;4.37;;
3549;SDS011;45572;48.804;8.330;2023-06-14T09:29:42;4.20;;;3.80;;
3549;SDS011;45572;48.804;8.330;2023-06-14T09:32:10;6.57;;;4.20;;
3549;SDS011;45572;48.804;8.330;2023-06-14T09:34:39;5.70;;;3.97;;
3549;SDS011;45572;48.804;8.330;2023-06-14T09:37:07;7.60;;;3.73;;
3549;SDS011;45572;48.804;8.330;2023-06-14T09:39:35;6.80;;;4.13;;
3549;SDS011;45572;48.804;8.330;2023-06-14T09:42:16;4.60;;;3.70;;
3549;SDS011;45572;48.804;8.330;2023-06-14T09:44:45;3.90;;;3.60;;
3549;SDS011;45572;48.804;8.330;2023-06-14T09:47:15;5.37;;;3.57;;
3549;SDS011;45572;48.804;8.330;2023-06-14T09:49:45;3.67;;;3.30;;
3549;SDS011;45572;48.804;8.330;2023-06-14T09:52:14;6.83;;;3.57;;
3549;SDS011;45572;48.804;8.330;2023-06-14T09:54:43;5.23;;;3.20;;
3549;SDS011;45572;48.804;8.330;2023-06-14T09:57:13;4.67;;;3.47;;
3549;SDS011;45572;48.804;8.330;2023-06-14T09:59:43;5.60;;;3.37;;
3549;SDS011;45572;48.804;8.330;2023-06-14T10:02:14;8.03;;;4.17;;
3549;SDS011;45572;48.804;8.330;2023-06-14T10:04:53;3.97;;;3.57;;
3549;SDS011;45572;48.804;8.330;2023-06-14T10:07:28;4.00;;;3.60;;
3549;SDS011;45572;48.804;8.330;2023-06-14T10:09:59;5.43;;;3.80;;
3549;SDS011;45572;48.804;8.330;2023-06-14T10:12:27;4.80;;;3.70;;
3549;SDS011;45572;48.804;8.330;2023-06-14T10:14:55;4.67;;;3.30;;
3549;SDS011;45572;48.804;8.330;2023-06-14T10:17:26;5.07;;;4.53;;
3549;SDS011;45572;48.804;8.330;2023-06-14T10:20:14;4.43;;;3.70;;
3549;SDS011;45572;48.804;8.330;2023-06-14T10:23:07;3.93;;;3.43;;
3549;SDS011;45572;48.804;8.330;2023-06-14T10:25:41;3.47;;;3.17;;
3549;SDS011;45572;48.804;8.330;2023-06-14T10:28:16;8.93;;;3.60;;
3549;SDS011;45572;48.804;8.330;2023-06-14T10:33:32;3.93;;;3.30;;
3549;SDS011;45572;48.804;8.330;2023-06-14T10:36:09;6.63;;;3.60;;
3549;SDS011;45572;48.804;8.330;2023-06-14T10:38:40;4.67;;;3.63;;
3549;SDS011;45572;48.804;8.330;2023-06-14T10:41:09;4.17;;;3.70;;
3549;SDS011;45572;48.804;8.330;2023-06-14T10:43:37;7.47;;;4.63;;
3549;SDS011;45572;48.804;8.330;2023-06-14T10:48:52;5.33;;;3.43;;
3549;SDS011;45572;48.804;8.330;2023-06-14T10:51:29;5.03;;;3.30;;
3549;SDS011;45572;48.804;8.330;2023-06-14T10:53:58;6.30;;;3.80;;
3549;SDS011;45572;48.804;8.330;2023-06-14T10:56:27;4.30;;;3.73;;
3549;SDS011;45572;48.804;8.330;2023-06-14T10:58:56;3.90;;;3.30;;
3549;SDS011;45572;48.804;8.330;2023-06-14T11:01:30;3.93;;;3.63;;
3549;SDS011;45572;48.804;8.330;2023-06-14T11:04:06;3.70;;;3.00;;
3549;SDS011;45572;48.804;8.330;2023-06-14T11:06:44;5.10;;;3.27;;
3549;SDS011;45572;48.804;8.330;2023-06-14T11:09:26;6.80;;;3.47;;
3549;SDS011;45572;48.804;8.330;2023-06-14T11:12:17;5.33;;;2.60;;
3549;SDS011;45572;48.804;8.330;2023-06-14T11:14:46;3.13;;;2.73;;
3549;SDS011;45572;48.804;8.330;2023-06-14T11:17:14;3.00;;;2.77;;
3549;SDS011;45572;48.804;8.330;2023-06-14T11:19:46;3.87;;;2.37;;
3549;SDS011;45572;48.804;8.330;2023-06-14T11:22:16;4.23;;;2.50;;
3549;SDS011;45572;48.804;8.330;2023-06-14T11:24:48;5.67;;;3.00;;
3549;SDS011;45572;48.804;8.330;2023-06-14T11:27:18;8.10;;;3.50;;
3549;SDS011;45572;48.804;8.330;2023-06-14T11:29:48;4.50;;;3.33;;
3549;SDS011;45572;48.804;8.330;2023-06-14T11:32:20;6.43;;;2.97;;
3549;SDS011;45572;48.804;8.330;2023-06-14T11:34:50;4.53;;;2.63;;
3549;SDS011;45572;48.804;8.330;2023-06-14T11:37:21;4.30;;;3.07;;
3549;SDS011;45572;48.804;8.330;2023-06-14T11:39:55;3.07;;;2.33;;
3549;SDS011;45572;48.804;8.330;2023-06-14T11:42:24;3.10;;;2.90;;
3549;SDS011;45572;48.804;8.330;2023-06-14T11:44:54;4.10;;;3.00;;
3549;SDS011;45572;48.804;8.330;2023-06-14T11:47:34;4.33;;;3.00;;
3549;SDS011;45572;48.804;8.330;2023-06-14T11:50:08;4.50;;;3.60;;
3549;SDS011;45572;48.804;8.330;2023-06-14T11:52:38;4.17;;;3.10;;
3549;SDS011;45572;48.804;8.330;2023-06-14T11:55:07;6.80;;;3.50;;
3549;SDS011;45572;48.804;8.330;2023-06-14T11:57:37;4.20;;;2.63;;
3549;SDS011;45572;48.804;8.330;2023-06-14T12:00:09;3.77;;;2.93;;
3549;SDS011;45572;48.804;8.330;2023-06-14T12:02:43;6.93;;;2.97;;
3549;SDS011;45572;48.804;8.330;2023-06-14T12:05:21;2.60;;;2.40;;
3549;SDS011;45572;48.804;8.330;2023-06-14T12:07:58;3.37;;;2.53;;
3549;SDS011;45572;48.804;8.330;2023-06-14T12:10:28;3.60;;;2.53;;
3549;SDS011;45572;48.804;8.330;2023-06-14T12:12:57;3.37;;;3.07;;
3549;SDS011;45572;48.804;8.330;2023-06-14T12:15:27;4.47;;;2.93;;
3549;SDS011;45572;48.804;8.330;2023-06-14T12:17:56;4.40;;;3.00;;
3549;SDS011;45572;48.804;8.330;2023-06-14T12:20:28;3.00;;;2.80;;
3549;SDS011;45572;48.804;8.330;2023-06-14T12:22:59;8.17;;;3.30;;
3549;SDS011;45572;48.804;8.330;2023-06-14T12:25:30;3.50;;;2.40;;
3549;SDS011;45572;48.804;8.330;2023-06-14T12:27:59;5.73;;;3.03;;
3549;SDS011;45572;48.804;8.330;2023-06-14T12:30:32;7.80;;;3.30;;
3549;SDS011;45572;48.804;8.330;2023-06-14T12:33:03;7.37;;;2.90;;
3549;SDS011;45572;48.804;8.330;2023-06-14T12:35:33;5.23;;;3.40;;
3549;SDS011;45572;48.804;8.330;2023-06-14T12:38:03;4.17;;;3.37;;
3549;SDS011;45572;48.804;8.330;2023-06-14T12:40:34;3.30;;;2.63;;
3549;SDS011;45572;48.804;8.330;2023-06-14T12:43:03;5.93;;;2.83;;
3549;SDS011;45572;48.804;8.330;2023-06-14T12:45:34;3.00;;;2.60;;
3549;SDS011;45572;48.804;8.330;2023-06-14T12:48:02;5.63;;;3.03;;
3549;SDS011;45572;48.804;8.330;2023-06-14T12:50:30;5.80;;;3.23;;
3549;SDS011;45572;48.804;8.330;2023-06-14T12:53:00;9.60;;;4.07;;
3549;SDS011;45572;48.804;8.330;2023-06-14T12:55:31;8.33;;;3.07;;
3549;SDS011;45572;48.804;8.330;2023-06-14T12:58:02;4.20;;;3.23;;
3549;SDS011;45572;48.804;8.330;2023-06-14T13:00:30;6.17;;;4.10;;
3549;SDS011;45572;48.804;8.330;2023-06-14T13:02:58;11.47;;;4.20;;
3549;SDS011;45572;48.804;8.330;2023-06-14T13:05:30;6.63;;;4.20;;
3549;SDS011;45572;48.804;8.330;2023-06-14T13:07:59;6.50;;;4.57;;
3549;SDS011;45572;48.804;8.330;2023-06-14T13:10:31;5.50;;;4.33;;
3549;SDS011;45572;48.804;8.330;2023-06-14T13:12:59;5.03;;;4.03;;
3549;SDS011;45572;48.804;8.330;2023-06-14T13:15:26;5.53;;;4.07;;
3549;SDS011;45572;48.804;8.330;2023-06-14T13:17:54;5.07;;;4.50;;
3549;SDS011;45572;48.804;8.330;2023-06-14T13:20:22;7.13;;;3.83;;
3549;SDS011;45572;48.804;8.330;2023-06-14T13:22:50;4.87;;;3.77;;
3549;SDS011;45572;48.804;8.330;2023-06-14T13:25:18;8.30;;;4.50;;
3549;SDS011;45572;48.804;8.330;2023-06-14T13:27:47;8.17;;;5.03;;
3549;SDS011;45572;48.804;8.330;2023-06-14T13:30:15;4.37;;;3.80;;
3549;SDS011;45572;48.804;8.330;2023-06-14T13:32:45;7.03;;;4.90;;
3549;SDS011;45572;48.804;8.330;2023-06-14T13:35:19;4.90;;;4.10;;
3549;SDS011;45572;48.804;8.330;2023-06-14T13:37:49;5.50;;;4.20;;
3549;SDS011;45572;48.804;8.330;2023-06-14T13:40:17;6.93;;;4.50;;
3549;SDS011;45572;48.804;8.330;2023-06-14T13:42:45;6.20;;;5.10;;
3549;SDS011;45572;48.804;8.330;2023-06-14T13:45:15;5.90;;;4.40;;
3549;SDS011;45572;48.804;8.330;2023-06-14T13:47:45;6.07;;;4.70;;
3549;SDS011;45572;48.804;8.330;2023-06-14T13:50:16;7.70;;;4.87;;
3549;SDS011;45572;48.804;8.330;2023-06-14T13:52:48;6.70;;;4.53;;
3549;SDS011;45572;48.804;8.330;2023-06-14T13:55:16;6.17;;;4.33;;
3549;SDS011;45572;48.804;8.330;2023-06-14T13:57:45;13.27;;;4.50;;
3549;SDS011;45572;48.804;8.330;2023-06-14T14:00:15;4.87;;;4.10;;
3549;SDS011;45572;48.804;8.330;2023-06-14T14:02:47;5.40;;;4.83;;
3549;SDS011;45572;48.804;8.330;2023-06-14T14:05:17;5.57;;;4.17;;
3549;SDS011;45572;48.804;8.330;2023-06-14T14:07:47;5.40;;;4.30;;
3549;SDS011;45572;48.804;8.330;2023-06-14T14:10:19;7.67;;;4.20;;
3549;SDS011;45572;48.804;8.330;2023-06-14T14:12:48;6.47;;;4.07;;
3549;SDS011;45572;48.804;8.330;2023-06-14T14:15:17;6.00;;;4.63;;
3549;SDS011;45572;48.804;8.330;2023-06-14T14:17:45;5.80;;;4.10;;
3549;SDS011;45572;48.804;8.330;2023-06-14T14:20:15;5.10;;;4.40;;
3549;SDS011;45572;48.804;8.330;2023-06-14T14:22:45;6.00;;;3.97;;
3549;SDS011;45572;48.804;8.330;2023-06-14T14:25:17;4.83;;;3.70;;
3549;SDS011;45572;48.804;8.330;2023-06-14T14:27:49;6.40;;;4.33;;
3549;SDS011;45572;48.804;8.330;2023-06-14T14:30:19;3.80;;;3.50;;
3549;SDS011;45572;48.804;8.330;2023-06-14T14:32:51;6.20;;;3.90;;
3549;SDS011;45572;48.804;8.330;2023-06-14T14:35:21;4.80;;;4.30;;
3549;SDS011;45572;48.804;8.330;2023-06-14T14:37:51;4.80;;;4.30;;
3549;SDS011;45572;48.804;8.330;2023-06-14T14:40:20;4.30;;;3.90;;
3549;SDS011;45572;48.804;8.330;2023-06-14T14:42:50;4.97;;;4.10;;
3549;SDS011;45572;48.804;8.330;2023-06-14T14:45:20;4.70;;;4.30;;
3549;SDS011;45572;48.804;8.330;2023-06-14T14:47:48;4.77;;;4.23;;
3549;SDS011;45572;48.804;8.330;2023-06-14T14:50:19;7.03;;;4.20;;
3549;SDS011;45572;48.804;8.330;2023-06-14T14:52:55;6.03;;;4.57;;
3549;SDS011;45572;48.804;8.330;2023-06-14T14:55:23;5.23;;;4.53;;
3549;SDS011;45572;48.804;8.330;2023-06-14T14:57:52;5.40;;;4.50;;
3549;SDS011;45572;48.804;8.330;2023-06-14T15:00:20;5.03;;;3.63;;
3549;SDS011;45572;48.804;8.330;2023-06-14T15:02:48;5.30;;;4.00;;
3549;SDS011;45572;48.804;8.330;2023-06-14T15:05:16;6.73;;;3.37;;
3549;SDS011;45572;48.804;8.330;2023-06-14T15:07:44;6.07;;;4.53;;
3549;SDS011;45572;48.804;8.330;2023-06-14T15:10:11;6.17;;;4.07;;
3549;SDS011;45572;48.804;8.330;2023-06-14T15:12:39;5.83;;;3.97;;
3549;SDS011;45572;48.804;8.330;2023-06-14T15:15:09;5.10;;;3.73;;
3549;SDS011;45572;48.804;8.330;2023-06-14T15:17:37;6.37;;;4.40;;
3549;SDS011;45572;48.804;8.330;2023-06-14T15:20:05;4.53;;;3.63;;
3549;SDS011;45572;48.804;8.330;2023-06-14T15:22:34;4.33;;;3.93;;